createdAt,value
2023-05-03T00:00:08.435Z,6.07
2023-05-03T00:02:39.100Z,6.07
2023-05-03T00:05:09.812Z,6.03
2023-05-03T00:07:36.459Z,6.00
2023-05-03T00:10:03.210Z,5.97
2023-05-03T00:12:30.220Z,5.90
2023-05-03T00:14:56.620Z,5.84
2023-05-03T00:17:23.017Z,5.78
2023-05-03T00:19:49.490Z,5.75
2023-05-03T00:22:15.915Z,5.73
2023-05-03T00:24:42.465Z,5.76
2023-05-03T00:27:08.865Z,5.77
2023-05-03T00:29:35.235Z,5.77
2023-05-03T00:32:02.462Z,5.70
2023-05-03T00:34:28.961Z,5.67
2023-05-03T00:36:55.347Z,5.65
2023-05-03T00:39:21.754Z,5.63
2023-05-03T00:41:48.235Z,5.61
2023-05-03T00:44:14.743Z,5.57
2023-05-03T00:46:41.382Z,5.55
2023-05-03T00:49:07.826Z,5.54
2023-05-03T00:51:34.256Z,5.53
2023-05-03T00:54:00.780Z,5.52
2023-05-03T00:56:29.584Z,5.51
2023-05-03T00:58:58.084Z,5.48
2023-05-03T01:01:25.311Z,5.47
2023-05-03T01:03:51.941Z,5.44
2023-05-03T01:06:27.758Z,5.37
2023-05-03T01:09:21.622Z,5.31
2023-05-03T01:12:25.759Z,5.24
2023-05-03T01:14:52.078Z,5.17
2023-05-03T01:17:25.528Z,5.17
2023-05-03T01:19:57.741Z,5.14
2023-05-03T01:22:35.025Z,5.15
2023-05-03T01:25:07.973Z,5.14
2023-05-03T01:27:34.577Z,5.13
2023-05-03T01:30:01.239Z,5.14
2023-05-03T01:32:51.392Z,5.13
2023-05-03T01:35:36.267Z,5.07
2023-05-03T01:38:04.262Z,5.06
2023-05-03T01:40:34.476Z,5.05
2023-05-03T01:43:03.148Z,5.03
2023-05-03T01:45:30.018Z,4.98
2023-05-03T01:47:57.310Z,4.96
2023-05-03T01:50:24.134Z,4.94
2023-05-03T01:52:52.504Z,4.91
2023-05-03T01:55:19.032Z,4.88
2023-05-03T01:57:45.468Z,4.85
2023-05-03T02:00:12.484Z,4.82
2023-05-03T02:02:38.914Z,4.78
2023-05-03T02:05:05.803Z,4.75
2023-05-03T02:07:32.244Z,4.72
2023-05-03T02:09:58.640Z,4.68
2023-05-03T02:12:25.277Z,4.65
2023-05-03T02:14:52.088Z,4.61
2023-05-03T02:17:20.815Z,4.60
2023-05-03T02:19:47.355Z,4.56
2023-05-03T02:22:13.786Z,4.54
2023-05-03T02:24:40.209Z,4.50
2023-05-03T02:27:06.846Z,4.46
2023-05-03T02:29:33.319Z,4.43
2023-05-03T02:31:59.950Z,4.43
2023-05-03T02:34:27.184Z,4.43
2023-05-03T02:36:53.745Z,4.43
2023-05-03T02:39:20.174Z,4.43
2023-05-03T02:41:46.745Z,4.43
2023-05-03T02:44:13.137Z,4.40
2023-05-03T02:46:40.809Z,4.39
2023-05-03T02:49:08.003Z,4.37
2023-05-03T02:51:35.219Z,4.35
2023-05-03T02:54:01.735Z,4.32
2023-05-03T02:56:28.516Z,4.32
2023-05-03T02:58:55.200Z,4.30
2023-05-03T03:01:22.070Z,4.28
2023-05-03T03:03:48.681Z,4.25
2023-05-03T03:06:15.253Z,4.24
2023-05-03T03:08:41.709Z,4.22
2023-05-03T03:11:08.241Z,4.21
2023-05-03T03:13:39.428Z,4.18
2023-05-03T03:16:07.525Z,4.13
2023-05-03T03:18:34.399Z,4.06
2023-05-03T03:21:03.908Z,4.06
2023-05-03T03:23:30.458Z,4.04
2023-05-03T03:25:56.930Z,4.04
2023-05-03T03:28:23.416Z,4.01
2023-05-03T03:30:49.878Z,4.00
2023-05-03T03:33:16.390Z,3.97
2023-05-03T03:35:42.829Z,3.96
2023-05-03T03:38:09.446Z,3.93
2023-05-03T03:40:35.980Z,3.92
2023-05-03T03:43:02.408Z,3.90
2023-05-03T03:45:28.853Z,3.89
2023-05-03T03:47:57.998Z,3.90
2023-05-03T03:50:25.705Z,3.91
2023-05-03T03:52:52.340Z,3.90
2023-05-03T03:55:18.827Z,3.92
2023-05-03T03:57:45.808Z,3.92
2023-05-03T04:00:12.792Z,3.90
2023-05-03T04:02:39.441Z,3.89
2023-05-03T04:05:06.543Z,3.85
2023-05-03T04:07:32.984Z,3.81
2023-05-03T04:09:59.450Z,3.77
2023-05-03T04:12:25.865Z,3.74
2023-05-03T04:14:52.370Z,3.73
2023-05-03T04:17:18.760Z,3.70
2023-05-03T04:19:45.202Z,3.66
2023-05-03T04:22:11.626Z,3.64
2023-05-03T04:24:40.604Z,3.62
2023-05-03T04:27:08.545Z,3.61
2023-05-03T04:29:34.936Z,3.60
2023-05-03T04:32:02.397Z,3.57
2023-05-03T04:34:30.221Z,3.57
2023-05-03T04:36:56.889Z,3.56
2023-05-03T04:39:23.936Z,3.56
2023-05-03T04:41:50.426Z,3.54
2023-05-03T04:44:16.844Z,3.55
2023-05-03T04:46:43.434Z,3.57
2023-05-03T04:49:09.990Z,3.56
2023-05-03T04:51:36.496Z,3.58
2023-05-03T04:54:03.262Z,3.61
2023-05-03T04:56:29.692Z,3.63
2023-05-03T04:58:56.075Z,3.64
2023-05-03T05:01:26.458Z,3.67
2023-05-03T05:03:53.711Z,3.69
2023-05-03T05:06:20.461Z,3.68
2023-05-03T05:08:46.958Z,3.72
2023-05-03T05:11:14.572Z,3.75
2023-05-03T05:13:41.003Z,3.75
2023-05-03T05:16:07.692Z,3.77
2023-05-03T05:18:34.804Z,3.78
2023-05-03T05:21:01.306Z,3.80
2023-05-03T05:23:27.871Z,3.82
2023-05-03T05:25:54.709Z,3.83
2023-05-03T05:28:21.132Z,3.88
2023-05-03T05:30:47.604Z,3.91
2023-05-03T05:33:14.665Z,3.93
2023-05-03T05:35:42.489Z,3.97
2023-05-03T05:38:09.108Z,4.03
2023-05-03T05:40:35.811Z,4.10
2023-05-03T05:43:02.216Z,4.17
2023-05-03T05:45:28.664Z,4.26
2023-05-03T05:47:55.092Z,4.36
2023-05-03T05:50:21.795Z,4.48
2023-05-03T05:52:51.292Z,4.62
2023-05-03T05:55:18.052Z,4.75
2023-05-03T05:57:44.582Z,4.89
2023-05-03T06:00:14.748Z,5.05
2023-05-03T06:02:42.248Z,5.17
2023-05-03T06:05:10.006Z,5.29
2023-05-03T06:07:36.877Z,5.39
2023-05-03T06:10:04.728Z,5.52
2023-05-03T06:12:31.596Z,5.62
2023-05-03T06:15:02.752Z,5.73
2023-05-03T06:17:30.004Z,5.83
2023-05-03T06:19:57.564Z,5.91
2023-05-03T06:22:25.133Z,6.00
2023-05-03T06:24:51.542Z,6.06
2023-05-03T06:27:17.990Z,6.17
2023-05-03T06:29:44.864Z,6.23
2023-05-03T06:32:11.467Z,6.28
2023-05-03T06:34:37.908Z,6.35
2023-05-03T06:37:04.466Z,6.42
2023-05-03T06:39:31.143Z,6.51
2023-05-03T06:41:57.554Z,6.60
2023-05-03T06:44:24.022Z,6.66
2023-05-03T06:46:51.284Z,6.76
2023-05-03T06:49:17.721Z,6.81
2023-05-03T06:51:44.139Z,6.88
2023-05-03T06:54:10.628Z,7.00
2023-05-03T06:56:37.220Z,7.14
2023-05-03T06:59:04.088Z,7.26
2023-05-03T07:01:33.939Z,7.39
2023-05-03T07:04:01.160Z,7.50
2023-05-03T07:06:27.697Z,7.61
2023-05-03T07:08:54.341Z,7.71
2023-05-03T07:11:24.774Z,7.81
2023-05-03T07:13:54.546Z,7.91
2023-05-03T07:16:21.867Z,8.01
2023-05-03T07:18:48.647Z,8.10
2023-05-03T07:21:15.418Z,8.21
2023-05-03T07:23:42.136Z,8.32
2023-05-03T07:26:08.671Z,8.44
2023-05-03T07:28:35.197Z,8.51
2023-05-03T07:31:03.406Z,8.65
2023-05-03T07:33:30.403Z,8.78
2023-05-03T07:35:56.900Z,8.90
2023-05-03T07:38:23.415Z,8.99
2023-05-03T07:40:49.854Z,9.13
2023-05-03T07:43:18.555Z,9.26
2023-05-03T07:45:44.986Z,9.38
2023-05-03T07:48:11.780Z,9.48
2023-05-03T07:50:38.199Z,9.59
2023-05-03T07:53:04.658Z,9.72
2023-05-03T07:55:32.941Z,9.75
2023-05-03T07:57:59.836Z,9.88
2023-05-03T08:00:27.287Z,10.00
2023-05-03T08:02:54.146Z,10.09
2023-05-03T08:05:21.365Z,10.20
2023-05-03T08:07:48.344Z,10.23
2023-05-03T08:10:15.367Z,10.35
2023-05-03T08:12:42.132Z,10.47
2023-05-03T08:15:08.838Z,10.60
2023-05-03T08:17:45.745Z,10.71
2023-05-03T08:20:13.408Z,10.81
2023-05-03T08:22:41.170Z,10.97
2023-05-03T08:25:08.255Z,11.04
2023-05-03T08:27:34.734Z,11.21
2023-05-03T08:30:01.716Z,11.34
2023-05-03T08:32:28.421Z,11.47
2023-05-03T08:34:55.978Z,11.46
2023-05-03T08:37:23.291Z,11.61
2023-05-03T08:39:49.805Z,11.68
2023-05-03T08:42:16.318Z,11.78
2023-05-03T08:44:50.553Z,11.83
2023-05-03T08:47:17.413Z,11.71
2023-05-03T08:49:44.544Z,11.73
2023-05-03T08:52:14.037Z,11.89
2023-05-03T08:54:41.388Z,12.03
2023-05-03T08:57:11.692Z,12.17
2023-05-03T08:59:48.931Z,12.31
2023-05-03T09:02:16.322Z,12.24
2023-05-03T09:04:43.092Z,12.22
2023-05-03T09:07:10.769Z,12.25
2023-05-03T09:09:37.585Z,12.40
2023-05-03T09:12:05.081Z,12.61
2023-05-03T09:14:41.613Z,12.78
2023-05-03T09:17:20.499Z,12.93
2023-05-03T09:19:58.245Z,13.08
2023-05-03T09:22:31.651Z,13.16
2023-05-03T09:24:59.931Z,13.24
2023-05-03T09:27:27.675Z,13.32
2023-05-03T09:29:54.815Z,13.26
2023-05-03T09:32:25.603Z,13.36
2023-05-03T09:35:08.430Z,13.55
2023-05-03T09:37:38.805Z,13.78
2023-05-03T09:40:07.979Z,13.71
2023-05-03T09:42:34.445Z,13.73
2023-05-03T09:45:01.026Z,13.91
2023-05-03T09:47:31.769Z,13.77
2023-05-03T09:49:58.984Z,14.01
2023-05-03T09:52:30.458Z,14.23
2023-05-03T09:54:57.563Z,14.32
2023-05-03T09:57:24.637Z,14.45
2023-05-03T09:59:51.155Z,14.58
2023-05-03T10:02:18.010Z,14.59
2023-05-03T10:04:50.885Z,14.72
2023-05-03T10:07:19.517Z,14.88
2023-05-03T10:09:48.000Z,14.77
2023-05-03T10:12:17.617Z,14.83
2023-05-03T10:14:48.677Z,15.08
2023-05-03T10:17:45.606Z,15.30
2023-05-03T10:20:27.109Z,15.57
2023-05-03T10:23:05.946Z,15.86
2023-05-03T10:25:33.142Z,15.85
2023-05-03T10:28:09.553Z,16.01
2023-05-03T10:30:37.893Z,16.23
2023-05-03T10:33:13.595Z,16.44
2023-05-03T10:35:41.813Z,16.63
2023-05-03T10:38:16.029Z,16.84
2023-05-03T10:40:43.517Z,16.84
2023-05-03T10:43:46.600Z,17.12
2023-05-03T10:46:31.919Z,17.00
2023-05-03T10:49:19.233Z,17.02
2023-05-03T10:51:45.962Z,16.97
2023-05-03T10:54:12.604Z,17.07
2023-05-03T10:56:48.120Z,17.24
2023-05-03T10:59:14.580Z,17.41
2023-05-03T11:01:44.555Z,17.62
2023-05-03T11:04:25.391Z,17.66
2023-05-03T11:06:56.545Z,17.68
2023-05-03T11:09:32.103Z,17.72
2023-05-03T11:11:58.807Z,17.61
2023-05-03T11:14:25.543Z,17.88
2023-05-03T11:16:52.408Z,17.93
2023-05-03T11:19:18.994Z,17.95
2023-05-03T11:21:46.496Z,17.76
2023-05-03T11:24:14.125Z,17.84
2023-05-03T11:26:40.660Z,17.71
2023-05-03T11:29:10.443Z,17.76
2023-05-03T11:31:37.123Z,18.06
2023-05-03T11:34:04.109Z,18.26
2023-05-03T11:36:31.108Z,18.07
2023-05-03T11:38:57.557Z,18.41
2023-05-03T11:41:24.035Z,18.58
2023-05-03T11:44:00.683Z,18.74
2023-05-03T11:46:34.670Z,18.94
2023-05-03T11:49:02.853Z,18.59
2023-05-03T11:51:30.128Z,18.98
2023-05-03T11:53:57.142Z,18.81
2023-05-03T11:56:24.027Z,18.92
2023-05-03T11:58:58.446Z,18.69
2023-05-03T12:01:26.774Z,18.89
2023-05-03T12:03:55.282Z,19.28
2023-05-03T12:06:22.983Z,19.50
2023-05-03T12:08:50.678Z,19.83
2023-05-03T12:11:18.190Z,20.03
2023-05-03T12:13:45.334Z,20.34
2023-05-03T12:16:15.605Z,20.37
2023-05-03T12:18:51.861Z,20.46
2023-05-03T12:23:55.958Z,20.48
2023-05-03T12:26:25.163Z,20.71
2023-05-03T12:28:55.119Z,20.70
2023-05-03T12:31:23.036Z,21.03
2023-05-03T12:34:12.189Z,20.97
2023-05-03T12:36:37.888Z,21.03
2023-05-03T12:39:09.304Z,21.05
2023-05-03T12:44:09.955Z,21.55
2023-05-03T12:46:37.483Z,21.83
2023-05-03T12:49:06.752Z,21.82
2023-05-03T12:51:34.521Z,22.06
2023-05-03T12:54:02.140Z,22.08
2023-05-03T12:56:32.330Z,22.11
2023-05-03T12:59:23.268Z,22.18
2023-05-03T13:03:10.045Z,22.14
2023-05-03T13:04:56.983Z,22.05
2023-05-03T13:07:28.173Z,21.90
2023-05-03T13:12:27.294Z,22.50
2023-05-03T13:14:54.891Z,22.66
2023-05-03T13:17:22.943Z,22.76
2023-05-03T13:19:51.496Z,22.86
2023-05-03T13:22:18.253Z,23.20
2023-05-03T13:24:46.154Z,23.40
2023-05-03T13:27:13.793Z,23.66
2023-05-03T13:29:40.913Z,23.83
2023-05-03T13:32:08.241Z,24.09
2023-05-03T13:34:35.558Z,24.07
2023-05-03T13:37:02.657Z,23.92
2023-05-03T13:39:29.144Z,23.63
2023-05-03T13:41:55.590Z,23.67
2023-05-03T13:44:25.289Z,23.29
2023-05-03T13:46:56.309Z,23.50
2023-05-03T13:49:22.845Z,23.64
2023-05-03T13:51:49.348Z,23.86
2023-05-03T13:54:15.873Z,23.85
2023-05-03T13:56:42.986Z,23.83
2023-05-03T13:59:12.491Z,23.81
2023-05-03T14:01:39.478Z,23.58
2023-05-03T14:04:06.087Z,23.93
2023-05-03T14:06:33.554Z,24.12
2023-05-03T14:09:01.961Z,24.24
2023-05-03T14:11:30.450Z,24.26
2023-05-03T14:13:58.129Z,24.51
2023-05-03T14:16:40.098Z,24.51
2023-05-03T14:19:10.460Z,24.70
2023-05-03T14:21:37.631Z,24.91
2023-05-03T14:24:04.499Z,25.03
2023-05-03T14:26:33.128Z,25.25
2023-05-03T14:28:59.542Z,24.97
2023-05-03T14:31:26.084Z,24.76
2023-05-03T14:33:52.495Z,24.75
2023-05-03T14:36:18.938Z,24.66
2023-05-03T14:38:45.396Z,24.81
2023-05-03T14:41:11.770Z,24.93
2023-05-03T14:43:38.177Z,25.00
2023-05-03T14:46:04.895Z,25.08
2023-05-03T14:48:31.346Z,25.33
2023-05-03T14:50:57.862Z,25.65
2023-05-03T14:53:24.320Z,26.00
2023-05-03T14:55:50.900Z,26.41
2023-05-03T14:58:17.460Z,26.73
2023-05-03T15:00:44.084Z,27.06
2023-05-03T15:03:12.323Z,27.26
2023-05-03T15:05:49.412Z,27.40
2023-05-03T15:08:17.769Z,27.54
2023-05-03T15:10:44.715Z,27.67
2023-05-03T15:13:11.981Z,27.49
2023-05-03T15:15:39.156Z,27.26
2023-05-03T15:18:06.796Z,27.06
2023-05-03T15:20:33.499Z,26.78
2023-05-03T15:23:00.027Z,26.40
2023-05-03T15:25:27.019Z,26.71
2023-05-03T15:27:53.525Z,26.99
2023-05-03T15:30:20.064Z,26.81
2023-05-03T15:32:46.602Z,26.74
2023-05-03T15:35:13.231Z,26.34
2023-05-03T15:37:39.781Z,26.53
2023-05-03T15:40:13.094Z,26.58
2023-05-03T15:42:39.840Z,26.82
2023-05-03T15:45:07.491Z,26.87
2023-05-03T15:47:34.093Z,26.77
2023-05-03T15:50:01.996Z,26.83
2023-05-03T15:52:28.651Z,27.09
2023-05-03T15:54:56.200Z,27.32
2023-05-03T15:57:23.592Z,27.16
2023-05-03T15:59:50.004Z,26.83
2023-05-03T16:02:16.933Z,27.01
2023-05-03T16:04:43.404Z,27.25
2023-05-03T16:07:09.801Z,27.26
2023-05-03T16:09:36.833Z,27.26
2023-05-03T16:12:03.369Z,27.23
2023-05-03T16:14:29.855Z,27.13
2023-05-03T16:16:56.346Z,27.17
2023-05-03T16:19:22.812Z,27.07
2023-05-03T16:21:49.236Z,27.35
2023-05-03T16:24:15.662Z,27.27
2023-05-03T16:26:42.178Z,27.34
2023-05-03T16:29:10.048Z,27.31
2023-05-03T16:31:36.570Z,27.37
2023-05-03T16:34:03.443Z,27.20
2023-05-03T16:36:30.250Z,26.70
2023-05-03T16:38:56.649Z,26.18
2023-05-03T16:41:24.211Z,25.78
2023-05-03T16:43:50.976Z,25.33
2023-05-03T16:46:17.514Z,24.97
2023-05-03T16:48:43.996Z,24.51
2023-05-03T16:51:10.399Z,24.16
2023-05-03T16:53:36.946Z,23.87
2023-05-03T16:56:03.481Z,23.60
2023-05-03T16:58:29.870Z,23.40
2023-05-03T17:00:56.340Z,23.12
2023-05-03T17:03:23.098Z,22.88
2023-05-03T17:05:49.653Z,22.66
2023-05-03T17:08:16.138Z,22.38
2023-05-03T17:10:42.788Z,22.15
2023-05-03T17:13:09.891Z,21.96
2023-05-03T17:15:37.098Z,22.32
2023-05-03T17:18:04.928Z,22.06
2023-05-03T17:20:32.938Z,21.94
2023-05-03T17:22:59.360Z,21.82
2023-05-03T17:25:26.370Z,21.67
2023-05-03T17:27:53.168Z,21.50
2023-05-03T17:30:22.549Z,21.38
2023-05-03T17:32:48.990Z,21.30
2023-05-03T17:35:15.598Z,21.38
2023-05-03T17:37:42.010Z,21.35
2023-05-03T17:40:08.969Z,21.33
2023-05-03T17:42:35.540Z,21.30
2023-05-03T17:45:03.556Z,21.20
2023-05-03T17:47:30.341Z,21.17
2023-05-03T17:49:56.957Z,21.17
2023-05-03T17:52:23.360Z,21.13
2023-05-03T17:54:52.448Z,21.10
2023-05-03T17:57:20.590Z,21.08
2023-05-03T17:59:48.677Z,21.05
2023-05-03T18:02:15.266Z,21.01
2023-05-03T18:04:41.702Z,20.99
2023-05-03T18:09:34.436Z,20.80
2023-05-03T18:12:01.942Z,20.68
2023-05-03T18:14:28.366Z,20.57
2023-05-03T18:16:57.459Z,20.38
2023-05-03T18:19:24.098Z,20.24
2023-05-03T18:21:50.551Z,20.06
2023-05-03T18:24:17.056Z,19.89
2023-05-03T18:26:43.590Z,19.76
2023-05-03T18:29:10.150Z,19.65
2023-05-03T18:31:36.747Z,19.53
2023-05-03T18:34:03.340Z,19.42
2023-05-03T18:36:29.777Z,19.31
2023-05-03T18:38:56.322Z,19.12
2023-05-03T18:41:23.057Z,18.94
2023-05-03T18:43:50.410Z,18.74
2023-05-03T18:46:18.565Z,18.56
2023-05-03T18:48:45.652Z,18.34
2023-05-03T18:51:12.076Z,18.13
2023-05-03T18:53:38.485Z,17.92
2023-05-03T18:56:05.093Z,17.70
2023-05-03T18:58:32.449Z,17.51
2023-05-03T19:01:00.240Z,17.29
2023-05-03T19:03:29.360Z,17.14
2023-05-03T19:05:59.775Z,16.98
2023-05-03T19:08:26.321Z,16.81
2023-05-03T19:10:52.731Z,16.68
2023-05-03T19:13:19.482Z,16.49
2023-05-03T19:15:46.255Z,16.33
2023-05-03T19:18:14.735Z,16.23
2023-05-03T19:20:42.858Z,16.13
2023-05-03T19:23:09.347Z,16.03
2023-05-03T19:25:35.864Z,15.95
2023-05-03T19:28:04.280Z,15.88
2023-05-03T19:30:30.922Z,15.80
2023-05-03T19:32:57.418Z,15.72
2023-05-03T19:35:23.935Z,15.59
2023-05-03T19:37:50.418Z,15.49
2023-05-03T19:40:16.949Z,15.37
2023-05-03T19:42:43.383Z,15.30
2023-05-03T19:45:10.244Z,15.24
2023-05-03T19:47:36.851Z,15.13
2023-05-03T19:50:03.690Z,15.06
2023-05-03T19:52:30.332Z,14.98
2023-05-03T19:54:57.764Z,14.90
2023-05-03T19:57:24.511Z,14.80
2023-05-03T19:59:50.905Z,14.72
2023-05-03T20:02:18.520Z,14.68
2023-05-03T20:04:44.900Z,14.59
2023-05-03T20:07:11.361Z,14.53
2023-05-03T20:09:37.778Z,14.42
2023-05-03T20:12:04.653Z,14.32
2023-05-03T20:14:32.408Z,14.23
2023-05-03T20:16:58.943Z,14.13
2023-05-03T20:19:25.885Z,14.01
2023-05-03T20:21:52.776Z,13.88
2023-05-03T20:24:20.540Z,13.77
2023-05-03T20:26:46.953Z,13.68
2023-05-03T20:29:13.512Z,13.59
2023-05-03T20:31:40.037Z,13.52
2023-05-03T20:34:06.651Z,13.43
2023-05-03T20:36:33.116Z,13.38
2023-05-03T20:38:59.572Z,13.29
2023-05-03T20:41:26.160Z,13.20
2023-05-03T20:43:54.805Z,13.09
2023-05-03T20:46:21.342Z,12.99
2023-05-03T20:48:47.895Z,12.90
2023-05-03T20:51:14.899Z,12.83
2023-05-03T20:53:41.475Z,12.78
2023-05-03T20:56:08.280Z,12.68
2023-05-03T20:58:34.838Z,12.58
2023-05-03T21:01:04.254Z,12.50
2023-05-03T21:03:31.511Z,12.41
2023-05-03T21:05:58.318Z,12.36
2023-05-03T21:08:25.001Z,12.32
2023-05-03T21:10:51.760Z,12.27
2023-05-03T21:13:18.293Z,12.19
2023-05-03T21:15:44.861Z,12.14
2023-05-03T21:18:11.609Z,12.06
2023-05-03T21:20:38.155Z,11.99
2023-05-03T21:23:05.553Z,11.90
2023-05-03T21:25:32.188Z,11.84
2023-05-03T21:27:58.623Z,11.77
2023-05-03T21:30:25.022Z,11.72
2023-05-03T21:32:51.479Z,11.68
2023-05-03T21:35:19.056Z,11.60
2023-05-03T21:37:47.244Z,11.51
2023-05-03T21:40:15.221Z,11.44
2023-05-03T21:42:44.730Z,11.37
2023-05-03T21:45:12.315Z,11.32
2023-05-03T21:47:38.944Z,11.26
2023-05-03T21:50:06.418Z,11.19
2023-05-03T21:52:33.667Z,11.15
2023-05-03T21:55:00.196Z,11.08
2023-05-03T21:57:26.734Z,11.02
2023-05-03T21:59:56.601Z,10.97
2023-05-03T22:02:23.226Z,10.91
2023-05-03T22:04:50.680Z,10.83
2023-05-03T22:07:17.459Z,10.77
2023-05-03T22:09:48.139Z,10.72
2023-05-03T22:14:45.004Z,10.62
2023-05-03T22:17:11.448Z,10.57
2023-05-03T22:19:38.076Z,10.54
2023-05-03T22:22:05.643Z,10.48
2023-05-03T22:24:32.090Z,10.43
2023-05-03T22:26:59.225Z,10.38
2023-05-03T22:29:26.278Z,10.35
2023-05-03T22:31:53.872Z,10.31
2023-05-03T22:34:20.484Z,10.28
2023-05-03T22:36:46.967Z,10.24
2023-05-03T22:39:13.427Z,10.20
2023-05-03T22:41:39.866Z,10.15
2023-05-03T22:44:06.292Z,10.13
2023-05-03T22:46:32.744Z,10.08
2023-05-03T22:48:59.194Z,10.06
2023-05-03T22:51:25.610Z,10.01
2023-05-03T22:53:52.060Z,9.97
2023-05-03T22:56:18.567Z,9.91
2023-05-03T22:58:46.773Z,9.87
2023-05-03T23:01:13.387Z,9.83
2023-05-03T23:03:40.142Z,9.81
2023-05-03T23:06:07.310Z,9.79
2023-05-03T23:08:33.724Z,9.75
2023-05-03T23:11:00.171Z,9.71
2023-05-03T23:13:27.342Z,9.65
2023-05-03T23:15:57.191Z,9.64
2023-05-03T23:18:23.768Z,9.61
2023-05-03T23:20:50.197Z,9.58
2023-05-03T23:23:16.766Z,9.56
2023-05-03T23:25:43.286Z,9.51
2023-05-03T23:28:10.008Z,9.47
2023-05-03T23:30:41.479Z,9.43
2023-05-03T23:33:08.241Z,9.40
2023-05-03T23:35:35.445Z,9.35
2023-05-03T23:38:01.969Z,9.33
2023-05-03T23:40:28.760Z,9.30
2023-05-03T23:42:55.188Z,9.25
2023-05-03T23:45:21.758Z,9.22
2023-05-03T23:47:48.197Z,9.18
2023-05-03T23:50:14.629Z,9.12
2023-05-03T23:52:42.051Z,9.10
2023-05-03T23:55:08.975Z,9.09
2023-05-03T23:57:35.431Z,9.06
